Time,TemperatureF,DewpointF,PressureIn,WindDirection,WindDirectionDegrees,WindSpeedMPH,WindSpeedGustMPH,Humidity,HourlyPrecipIn,Conditions,Clouds,dailyrainin,SoftwareType,DateUTC
2013-08-31 00:00:00,71.0,68.6,29.94,South,175,0.0,2.0,92,0.00,,SKC,0.01,VWS V14.01,2013-08-31 04:00:00,
2013-08-31 00:01:00,71.0,68.6,29.94,South,174,0.0,0.0,92,0.00,,SKC,0.00,VWS V14.01,2013-08-31 04:01:00,
2013-08-31 00:02:00,71.0,68.6,29.94,South,175,0.0,0.0,92,0.00,,SKC,0.00,VWS V14.01,2013-08-31 04:02:00,
2013-08-31 00:07:00,71.0,68.6,29.94,South,175,1.0,1.0,92,0.00,,SKC,0.00,VWS V14.01,2013-08-31 04:07:00,
2013-08-31 00:12:00,71.0,68.6,29.94,WSW,255,0.0,2.0,92,0.00,,SKC,0.00,VWS V14.01,2013-08-31 04:12:00,
2013-08-31 00:17:00,71.1,68.3,29.94,WSW,255,0.0,2.0,91,0.00,,SKC,0.00,VWS V14.01,2013-08-31 04:17:00,
2013-08-31 00:22:00,71.1,68.3,29.94,North,8,0.0,2.0,91,0.00,,SKC,0.00,VWS V14.01,2013-08-31 04:22:00,
2013-08-31 00:27:00,71.1,68.3,29.94,North,8,0.0,2.0,91,0.00,,SKC,0.00,VWS V14.01,2013-08-31 04:27:00,
2013-08-31 00:30:00,71.1,68.3,29.94,North,8,0.0,2.0,91,0.00,,SKC,0.00,VWS V14.01,2013-08-31 04:30:00,
2013-08-31 00:32:00,71.0,68.2,29.94,North,9,0.0,1.0,91,0.00,,SKC,0.00,VWS V14.01,2013-08-31 04:32:00,
2013-08-31 00:37:00,71.0,68.6,29.94,SW,224,0.0,2.0,92,0.00,,SKC,0.00,VWS V14.01,2013-08-31 04:37:00,
2013-08-31 00:42:00,70.7,68.3,29.94,SW,219,0.0,2.0,92,0.00,,SKC,0.00,VWS V14.01,2013-08-31 04:42:00,
2013-08-31 00:47:00,70.5,68.1,29.94,SW,219,0.0,2.0,92,0.00,,SKC,0.00,VWS V14.01,2013-08-31 04:47:00,
2013-08-31 00:52:00,70.2,68.1,29.94,SW,219,1.0,2.0,93,0.00,,SKC,0.00,VWS V14.01,2013-08-31 04:52:00,
2013-08-31 00:57:00,69.9,68.1,29.94,SW,219,0.0,2.0,94,0.00,,SKC,0.00,VWS V14.01,2013-08-31 04:57:00,
2013-08-31 01:00:00,69.7,67.9,29.94,SW,219,0.0,2.0,94,0.00,,SKC,0.00,VWS V14.01,2013-08-31 05:00:00,
2013-08-31 01:02:00,69.7,67.9,29.94,SW,219,0.0,1.0,94,0.00,,SKC,0.00,VWS V14.01,2013-08-31 05:02:00,
2013-08-31 01:07:00,69.5,67.7,29.94,SW,219,0.0,1.0,94,0.00,,SKC,0.00,VWS V14.01,2013-08-31 05:07:00,
2013-08-31 01:12:00,69.4,67.9,29.93,SW,219,1.0,1.0,95,0.00,,SKC,0.00,VWS V14.01,2013-08-31 05:12:00,
2013-08-31 01:17:00,69.3,67.8,29.93,SW,219,1.0,1.0,95,0.00,,SKC,0.00,VWS V14.01,2013-08-31 05:17:00,
2013-08-31 01:22:00,69.1,67.6,29.93,SW,219,0.0,1.0,95,0.00,,SKC,0.00,VWS V14.01,2013-08-31 05:22:00,
2013-08-31 01:27:00,68.9,67.4,29.93,SW,219,0.0,1.0,95,0.00,,SKC,0.00,VWS V14.01,2013-08-31 05:27:00,
2013-08-31 01:30:00,68.8,67.3,29.93,SW,219,0.0,1.0,95,0.00,,SKC,0.00,VWS V14.01,2013-08-31 05:30:00,
2013-08-31 01:32:00,68.7,67.5,29.93,SW,219,0.0,0.0,96,0.00,,SKC,0.00,VWS V14.01,2013-08-31 05:32:00,
2013-08-31 01:37:00,68.5,67.3,29.93,SW,219,0.0,0.0,96,0.00,,SKC,0.00,VWS V14.01,2013-08-31 05:37:00,
2013-08-31 01:42:00,68.4,67.2,29.93,SW,219,0.0,1.0,96,0.00,,SKC,0.00,VWS V14.01,2013-08-31 05:42:00,
2013-08-31 01:47:00,68.1,66.9,29.93,SW,219,0.0,1.0,96,0.00,,SKC,0.00,VWS V14.01,2013-08-31 05:47:00,
2013-08-31 01:52:00,67.9,66.7,29.93,SW,219,0.0,1.0,96,0.00,,SKC,0.00,VWS V14.01,2013-08-31 05:52:00,
2013-08-31 01:57:00,67.7,66.8,29.93,SW,219,0.0,1.0,97,0.00,,SKC,0.00,VWS V14.01,2013-08-31 05:57:00,
2013-08-31 02:00:00,67.7,66.8,29.93,SW,219,0.0,1.0,97,0.00,,SKC,0.00,VWS V14.01,2013-08-31 06:00:00,
2013-08-31 02:02:00,67.6,66.7,29.93,SW,219,0.0,0.0,97,0.00,,SKC,0.00,VWS V14.01,2013-08-31 06:02:00,
2013-08-31 02:07:00,67.5,66.6,29.93,SW,219,1.0,1.0,97,0.00,,SKC,0.00,VWS V14.01,2013-08-31 06:07:00,
2013-08-31 02:12:00,67.5,66.6,29.93,SW,219,0.0,1.0,97,0.00,,SKC,0.00,VWS V14.01,2013-08-31 06:12:00,
2013-08-31 02:17:00,67.4,66.8,29.93,SW,219,0.0,1.0,98,0.00,,SKC,0.00,VWS V14.01,2013-08-31 06:17:00,
2013-08-31 02:22:00,67.3,66.7,29.93,SW,219,0.0,1.0,98,0.00,,SKC,0.00,VWS V14.01,2013-08-31 06:22:00,
2013-08-31 02:27:00,67.2,66.6,29.93,SW,219,0.0,1.0,98,0.00,,SKC,0.00,VWS V14.01,2013-08-31 06:27:00,
2013-08-31 02:30:00,67.2,66.6,29.93,SW,219,0.0,1.0,98,0.00,,SKC,0.00,VWS V14.01,2013-08-31 06:30:00,
2013-08-31 02:32:00,67.2,66.6,29.93,SW,219,0.0,0.0,98,0.00,,SKC,0.00,VWS V14.01,2013-08-31 06:32:00,
2013-08-31 02:37:00,67.1,66.5,29.93,SW,219,0.0,0.0,98,0.00,,SKC,0.00,VWS V14.01,2013-08-31 06:37:00,
2013-08-31 02:42:00,67.0,66.4,29.93,SW,219,0.0,0.0,98,0.00,,SKC,0.00,VWS V14.01,2013-08-31 06:42:00,
2013-08-31 02:47:00,66.9,66.3,29.93,SW,219,0.0,0.0,98,0.00,,SKC,0.00,VWS V14.01,2013-08-31 06:47:00,
2013-08-31 02:52:00,66.9,66.3,29.93,SW,219,0.0,0.0,98,0.00,,SKC,0.00,VWS V14.01,2013-08-31 06:52:00,
2013-08-31 02:57:00,66.9,66.3,29.93,SW,219,0.0,0.0,98,0.00,,SKC,0.00,VWS V14.01,2013-08-31 06:57:00,
2013-08-31 03:00:00,66.9,66.3,29.93,SW,219,0.0,0.0,98,0.00,,SKC,0.00,VWS V14.01,2013-08-31 07:00:00,
2013-08-31 03:02:00,66.8,66.2,29.93,SW,219,0.0,0.0,98,0.00,,SKC,0.00,VWS V14.01,2013-08-31 07:02:00,
2013-08-31 03:07:00,66.7,66.1,29.93,SW,219,0.0,0.0,98,0.00,,SKC,0.00,VWS V14.01,2013-08-31 07:07:00,
2013-08-31 03:12:00,66.7,66.1,29.93,SW,220,0.0,0.0,98,0.00,,SKC,0.00,VWS V14.01,2013-08-31 07:12:00,
2013-08-31 03:17:00,66.7,66.4,29.93,SW,219,0.0,0.0,99,0.00,,SKC,0.00,VWS V14.01,2013-08-31 07:17:00,
2013-08-31 03:22:00,66.7,66.4,29.93,SW,219,0.0,0.0,99,0.00,,SKC,0.00,VWS V14.01,2013-08-31 07:22:00,
2013-08-31 03:27:00,66.7,66.4,29.93,SW,219,0.0,1.0,99,0.00,,SKC,0.00,VWS V14.01,2013-08-31 07:27:00,
2013-08-31 03:30:00,66.7,66.4,29.93,SW,219,0.0,1.0,99,0.00,,SKC,0.00,VWS V14.01,2013-08-31 07:30:00,
2013-08-31 03:32:00,66.7,66.4,29.93,SW,219,0.0,0.0,99,0.00,,SKC,0.00,VWS V14.01,2013-08-31 07:32:00,
2013-08-31 03:37:00,66.7,66.4,29.93,SW,219,0.0,0.0,99,0.00,,SKC,0.00,VWS V14.01,2013-08-31 07:37:00,
2013-08-31 03:42:00,66.7,66.4,29.93,SW,219,0.0,0.0,99,0.00,,SKC,0.00,VWS V14.01,2013-08-31 07:42:00,
2013-08-31 03:47:00,66.7,66.4,29.93,SW,220,0.0,0.0,99,0.00,,SKC,0.00,VWS V14.01,2013-08-31 07:47:00,
2013-08-31 03:52:00,66.6,66.3,29.93,SW,219,0.0,0.0,99,0.00,,SKC,0.00,VWS V14.01,2013-08-31 07:52:00,
2013-08-31 03:57:00,66.6,66.3,29.93,SW,219,0.0,0.0,99,0.00,,SKC,0.00,VWS V14.01,2013-08-31 07:57:00,
2013-08-31 04:00:00,66.6,66.3,29.93,SW,219,0.0,0.0,99,0.00,,SKC,0.00,VWS V14.01,2013-08-31 08:00:00,
2013-08-31 04:02:00,66.6,66.3,29.93,SW,219,0.0,0.0,99,0.00,,SKC,0.00,VWS V14.01,2013-08-31 08:02:00,
2013-08-31 04:07:00,66.6,66.3,29.93,SW,219,0.0,0.0,99,0.00,,SKC,0.00,VWS V14.01,2013-08-31 08:07:00,
2013-08-31 04:12:00,66.5,66.2,29.92,SW,219,0.0,0.0,99,0.00,,SKC,0.00,VWS V14.01,2013-08-31 08:12:00,
2013-08-31 04:17:00,66.5,66.2,29.92,SW,219,0.0,0.0,99,0.00,,SKC,0.00,VWS V14.01,2013-08-31 08:17:00,
2013-08-31 04:22:00,66.4,66.1,29.92,SW,219,0.0,0.0,99,0.00,,SKC,0.00,VWS V14.01,2013-08-31 08:22:00,
2013-08-31 04:27:00,66.3,66.0,29.92,SW,219,0.0,0.0,99,0.00,,SKC,0.00,VWS V14.01,2013-08-31 08:27:00,
2013-08-31 04:30:00,66.2,65.9,29.92,SW,219,0.0,0.0,99,0.00,,SKC,0.00,VWS V14.01,2013-08-31 08:30:00,
2013-08-31 04:32:00,66.2,65.9,29.92,SW,219,0.0,0.0,99,0.00,,SKC,0.00,VWS V14.01,2013-08-31 08:32:00,
2013-08-31 04:37:00,66.1,65.8,29.92,SW,219,0.0,0.0,99,0.00,,SKC,0.00,VWS V14.01,2013-08-31 08:37:00,
2013-08-31 04:42:00,66.0,65.7,29.92,SW,219,0.0,1.0,99,0.00,,SKC,0.00,VWS V14.01,2013-08-31 08:42:00,
2013-08-31 04:47:00,65.9,65.6,29.92,SW,219,0.0,1.0,99,0.00,,SKC,0.00,VWS V14.01,2013-08-31 08:47:00,
2013-08-31 04:52:00,65.9,65.6,29.92,SW,219,0.0,1.0,99,0.00,,SKC,0.00,VWS V14.01,2013-08-31 08:52:00,
2013-08-31 04:57:00,65.9,65.6,29.92,SW,219,0.0,1.0,99,0.00,,SKC,0.00,VWS V14.01,2013-08-31 08:57:00,
2013-08-31 05:00:00,66.0,65.7,29.92,SW,219,0.0,1.0,99,0.00,,SKC,0.00,VWS V14.01,2013-08-31 09:00:00,
2013-08-31 05:02:00,66.0,65.7,29.93,SW,219,0.0,0.0,99,0.00,,SKC,0.00,VWS V14.01,2013-08-31 09:02:00,
2013-08-31 05:07:00,65.9,65.6,29.93,SW,219,0.0,0.0,99,0.00,,SKC,0.00,VWS V14.01,2013-08-31 09:07:00,
2013-08-31 05:12:00,66.0,65.7,29.92,SW,219,0.0,0.0,99,0.00,,SKC,0.00,VWS V14.01,2013-08-31 09:12:00,
2013-08-31 05:17:00,66.1,65.8,29.93,SW,219,1.0,1.0,99,0.00,,SKC,0.00,VWS V14.01,2013-08-31 09:17:00,
2013-08-31 05:22:00,66.2,65.9,29.93,SW,219,1.0,1.0,99,0.00,,SKC,0.00,VWS V14.01,2013-08-31 09:22:00,
2013-08-31 05:27:00,66.3,66.0,29.93,SW,214,1.0,1.0,99,0.00,,SKC,0.00,VWS V14.01,2013-08-31 09:27:00,
2013-08-31 05:30:00,66.3,66.0,29.93,SE,127,1.0,1.0,99,0.00,,SKC,0.00,VWS V14.01,2013-08-31 09:30:00,
2013-08-31 05:32:00,66.4,66.1,29.93,SE,127,0.0,1.0,99,0.00,,SKC,0.00,VWS V14.01,2013-08-31 09:32:00,
2013-08-31 05:37:00,66.5,66.2,29.93,SE,127,0.0,1.0,99,0.00,,SKC,0.00,VWS V14.01,2013-08-31 09:37:00,
2013-08-31 05:42:00,66.6,66.3,29.93,SE,127,0.0,1.0,99,0.00,,SKC,0.00,VWS V14.01,2013-08-31 09:42:00,
2013-08-31 05:47:00,66.7,66.4,29.93,SE,127,0.0,1.0,99,0.00,,SKC,0.00,VWS V14.01,2013-08-31 09:47:00,
2013-08-31 05:52:00,66.7,66.4,29.93,SE,127,0.0,1.0,99,0.00,,SKC,0.00,VWS V14.01,2013-08-31 09:52:00,
2013-08-31 05:57:00,66.6,66.3,29.93,SE,127,0.0,1.0,99,0.00,,SKC,0.00,VWS V14.01,2013-08-31 09:57:00,
2013-08-31 06:00:00,66.5,66.2,29.94,SE,127,0.0,1.0,99,0.00,,SKC,0.00,VWS V14.01,2013-08-31 10:00:00,
2013-08-31 06:02:00,66.5,66.2,29.93,SE,127,0.0,0.0,99,0.00,,SKC,0.00,VWS V14.01,2013-08-31 10:02:00,
2013-08-31 06:07:00,66.6,66.3,29.93,SE,127,0.0,0.0,99,0.00,,SKC,0.00,VWS V14.01,2013-08-31 10:07:00,
2013-08-31 06:12:00,66.7,66.4,29.94,SE,127,0.0,1.0,99,0.00,,SKC,0.00,VWS V14.01,2013-08-31 10:12:00,
2013-08-31 06:17:00,66.8,66.5,29.94,SE,127,0.0,1.0,99,0.00,,SKC,0.00,VWS V14.01,2013-08-31 10:17:00,
2013-08-31 06:22:00,66.8,66.5,29.93,SE,127,0.0,1.0,99,0.00,,SKC,0.00,VWS V14.01,2013-08-31 10:22:00,
2013-08-31 06:27:00,66.8,66.5,29.93,SE,127,0.0,1.0,99,0.00,,SKC,0.00,VWS V14.01,2013-08-31 10:27:00,
2013-08-31 06:30:00,66.8,66.5,29.92,SE,127,0.0,1.0,99,0.00,,SKC,0.00,VWS V14.01,2013-08-31 10:30:00,
2013-08-31 06:32:00,66.9,66.6,29.92,SE,127,0.0,0.0,99,0.00,,SKC,0.00,VWS V14.01,2013-08-31 10:32:00,
2013-08-31 06:37:00,66.9,66.6,29.93,SE,127,0.0,0.0,99,0.00,,SKC,0.00,VWS V14.01,2013-08-31 10:37:00,
2013-08-31 06:42:00,66.9,66.6,29.93,SE,127,0.0,1.0,99,0.00,,SKC,0.00,VWS V14.01,2013-08-31 10:42:00,
2013-08-31 06:47:00,66.9,66.6,29.93,SE,127,0.0,1.0,99,0.00,,SKC,0.00,VWS V14.01,2013-08-31 10:47:00,
2013-08-31 06:52:00,66.9,66.6,29.93,SE,127,0.0,1.0,99,0.00,,SKC,0.00,VWS V14.01,2013-08-31 10:52:00,
2013-08-31 06:57:00,66.9,66.6,29.93,SE,127,0.0,1.0,99,0.00,,SKC,0.00,VWS V14.01,2013-08-31 10:57:00,
2013-08-31 07:00:00,66.9,66.6,29.93,SE,127,0.0,1.0,99,0.00,,SKC,0.00,VWS V14.01,2013-08-31 11:00:00,
2013-08-31 07:02:00,66.9,66.6,29.93,SE,127,0.0,0.0,99,0.00,,SKC,0.00,VWS V14.01,2013-08-31 11:02:00,
2013-08-31 07:07:00,66.9,66.6,29.93,SE,127,0.0,0.0,99,0.00,,SKC,0.00,VWS V14.01,2013-08-31 11:07:00,
2013-08-31 07:12:00,67.0,67.0,29.94,SE,127,0.0,1.0,100,0.00,,SKC,0.00,VWS V14.01,2013-08-31 11:12:00,
2013-08-31 07:17:00,67.0,66.7,29.94,SE,127,0.0,1.0,99,0.00,,SKC,0.00,VWS V14.01,2013-08-31 11:17:00,
2013-08-31 07:22:00,67.0,66.7,29.94,SE,127,0.0,1.0,99,0.00,,SKC,0.00,VWS V14.01,2013-08-31 11:22:00,
2013-08-31 07:26:00,67.0,66.7,29.95,SE,127,0.0,1.0,99,0.00,,SKC,0.00,VWS V14.01,2013-08-31 11:26:00,
2013-08-31 07:30:00,67.0,66.7,29.94,SE,127,0.0,1.0,99,0.00,,SKC,0.00,VWS V14.01,2013-08-31 11:30:00,
2013-08-31 07:31:00,67.0,66.7,29.94,SE,127,0.0,0.0,99,0.00,,SKC,0.00,VWS V14.01,2013-08-31 11:31:00,
2013-08-31 07:36:00,67.1,67.1,29.94,SE,127,0.0,0.0,100,0.00,,SKC,0.00,VWS V14.01,2013-08-31 11:36:00,
2013-08-31 07:41:00,67.2,67.2,29.94,SE,127,0.0,1.0,100,0.00,,SKC,0.00,VWS V14.01,2013-08-31 11:41:00,
2013-08-31 07:46:00,67.3,67.3,29.95,SE,127,0.0,1.0,100,0.00,,SKC,0.00,VWS V14.01,2013-08-31 11:46:00,
2013-08-31 07:51:00,67.4,67.4,29.95,SE,127,0.0,1.0,100,0.00,,SKC,0.00,VWS V14.01,2013-08-31 11:51:00,
2013-08-31 07:56:00,67.6,67.6,29.94,SE,127,0.0,1.0,100,0.00,,SKC,0.00,VWS V14.01,2013-08-31 11:56:00,
2013-08-31 08:00:00,67.6,67.6,29.95,SE,127,0.0,1.0,100,0.00,,SKC,0.00,VWS V14.01,2013-08-31 12:00:00,
2013-08-31 08:01:00,67.6,67.6,29.95,SE,127,0.0,1.0,100,0.00,,SKC,0.00,VWS V14.01,2013-08-31 12:01:00,
2013-08-31 08:06:00,67.6,67.6,29.95,SE,127,0.0,1.0,100,0.00,,SKC,0.00,VWS V14.01,2013-08-31 12:06:00,
2013-08-31 08:11:00,67.6,67.6,29.95,SE,127,0.0,1.0,100,0.00,,SKC,0.00,VWS V14.01,2013-08-31 12:11:00,
2013-08-31 08:16:00,67.7,67.7,29.95,SE,127,0.0,1.0,100,0.00,,SKC,0.00,VWS V14.01,2013-08-31 12:16:00,
2013-08-31 08:21:00,67.8,67.8,29.95,SE,127,1.0,1.0,100,0.00,,SKC,0.00,VWS V14.01,2013-08-31 12:21:00,
2013-08-31 08:26:00,67.9,67.9,29.96,North,355,2.0,2.0,100,0.00,,SKC,0.00,VWS V14.01,2013-08-31 12:26:00,
2013-08-31 08:30:00,67.8,67.5,29.96,North,355,0.0,2.0,99,0.00,,SKC,0.00,VWS V14.01,2013-08-31 12:30:00,
2013-08-31 08:31:00,67.8,67.5,29.96,North,355,1.0,1.0,99,0.00,,SKC,0.00,VWS V14.01,2013-08-31 12:31:00,
2013-08-31 08:36:00,67.9,67.9,29.96,NNE,15,1.0,1.0,100,0.00,,SKC,0.00,VWS V14.01,2013-08-31 12:36:00,
2013-08-31 08:41:00,67.9,67.6,29.96,NW,324,0.0,2.0,99,0.00,,SKC,0.00,VWS V14.01,2013-08-31 12:41:00,
2013-08-31 08:46:00,68.1,68.1,29.96,NW,324,0.0,2.0,100,0.00,,SKC,0.00,VWS V14.01,2013-08-31 12:46:00,
2013-08-31 08:51:00,68.3,68.3,29.96,NW,324,0.0,2.0,100,0.00,,SKC,0.00,VWS V14.01,2013-08-31 12:51:00,
2013-08-31 08:56:00,68.6,68.6,29.96,NW,325,0.0,2.0,100,0.00,,SKC,0.00,VWS V14.01,2013-08-31 12:56:00,
2013-08-31 09:00:00,68.7,68.7,29.96,NW,325,0.0,2.0,100,0.00,,SKC,0.00,VWS V14.01,2013-08-31 13:00:00,
2013-08-31 09:01:00,68.7,68.7,29.96,NW,325,0.0,0.0,100,0.00,,SKC,0.00,VWS V14.01,2013-08-31 13:01:00,
2013-08-31 09:06:00,68.4,68.1,29.96,NW,324,0.0,1.0,99,0.00,,SKC,0.00,VWS V14.01,2013-08-31 13:06:00,
2013-08-31 09:11:00,68.5,68.2,29.96,SSE,167,0.0,1.0,99,0.00,,SKC,0.00,VWS V14.01,2013-08-31 13:11:00,
2013-08-31 09:16:00,68.5,68.2,29.96,South,176,0.0,1.0,99,0.00,,SKC,0.00,VWS V14.01,2013-08-31 13:16:00,
2013-08-31 09:21:00,68.8,68.5,29.97,South,176,1.0,1.0,99,0.00,,SKC,0.00,VWS V14.01,2013-08-31 13:21:00,
2013-08-31 09:26:00,69.0,68.7,29.96,South,176,0.0,2.0,99,0.00,,SKC,0.00,VWS V14.01,2013-08-31 13:26:00,
2013-08-31 09:30:00,69.0,68.7,29.96,WNW,292,1.0,2.0,99,0.00,,SKC,0.00,VWS V14.01,2013-08-31 13:30:00,
2013-08-31 09:31:00,69.0,68.7,29.96,WNW,293,0.0,1.0,99,0.00,,SKC,0.00,VWS V14.01,2013-08-31 13:31:00,
2013-08-31 09:36:00,69.4,69.1,29.96,WNW,292,0.0,1.0,99,0.00,,SKC,0.00,VWS V14.01,2013-08-31 13:36:00,
2013-08-31 09:41:00,69.7,69.4,29.96,NNW,338,1.0,1.0,99,0.00,,SKC,0.00,VWS V14.01,2013-08-31 13:41:00,
2013-08-31 09:46:00,69.9,69.3,29.96,NW,319,1.0,2.0,98,0.00,,SKC,0.00,VWS V14.01,2013-08-31 13:46:00,
2013-08-31 09:51:00,70.3,69.4,29.96,West,274,0.0,2.0,97,0.00,,SKC,0.00,VWS V14.01,2013-08-31 13:51:00,
2013-08-31 09:56:00,70.8,69.6,29.96,NW,314,0.0,2.0,96,0.00,,SKC,0.00,VWS V14.01,2013-08-31 13:56:00,
2013-08-31 10:00:00,71.0,69.5,29.95,NW,314,0.0,2.0,95,0.00,,SKC,0.00,VWS V14.01,2013-08-31 14:00:00,
2013-08-31 10:01:00,71.1,69.6,29.95,NW,313,0.0,0.0,95,0.00,,SKC,0.00,VWS V14.01,2013-08-31 14:01:00,
2013-08-31 10:06:00,71.4,69.3,29.95,NNE,15,0.0,2.0,93,0.00,,SKC,0.00,VWS V14.01,2013-08-31 14:06:00,
2013-08-31 10:11:00,71.2,69.1,29.96,NW,316,1.0,4.0,93,0.00,,SKC,0.00,VWS V14.01,2013-08-31 14:11:00,
2013-08-31 10:16:00,70.9,69.1,29.96,NNW,338,1.0,4.0,94,0.00,,SKC,0.00,VWS V14.01,2013-08-31 14:16:00,
2013-08-31 10:21:00,70.8,69.0,29.95,NNE,16,0.0,4.0,94,0.00,,SKC,0.00,VWS V14.01,2013-08-31 14:21:00,
2013-08-31 10:26:00,70.6,69.1,29.95,NNE,15,0.0,4.0,95,0.00,,SKC,0.00,VWS V14.01,2013-08-31 14:26:00,
2013-08-31 10:30:00,70.7,69.2,29.96,North,8,1.0,4.0,95,0.00,,SKC,0.00,VWS V14.01,2013-08-31 14:30:00,
2013-08-31 10:31:00,70.6,69.1,29.96,North,4,1.0,2.0,95,0.00,,SKC,0.00,VWS V14.01,2013-08-31 14:31:00,
2013-08-31 10:36:00,70.6,69.1,29.96,North,4,0.0,2.0,95,0.00,,SKC,0.00,VWS V14.01,2013-08-31 14:36:00,
2013-08-31 10:41:00,70.8,69.3,29.95,North,4,0.0,2.0,95,0.00,,SKC,0.00,VWS V14.01,2013-08-31 14:41:00,
2013-08-31 10:46:00,71.2,69.7,29.96,NNE,22,0.0,2.0,95,0.00,,SKC,0.00,VWS V14.01,2013-08-31 14:46:00,
2013-08-31 10:51:00,71.6,69.5,29.96,North,352,2.0,2.0,93,0.00,,SKC,0.00,VWS V14.01,2013-08-31 14:51:00,
2013-08-31 10:56:00,72.1,69.7,29.96,NE,53,1.0,3.0,92,0.00,,SKC,0.00,VWS V14.01,2013-08-31 14:56:00,
2013-08-31 11:00:00,72.4,69.9,29.96,NNW,341,3.0,4.0,92,0.00,,SKC,0.00,VWS V14.01,2013-08-31 15:00:00,
2013-08-31 11:01:00,72.6,69.8,29.96,ENE,76,0.0,2.0,91,0.00,,SKC,0.00,VWS V14.01,2013-08-31 15:01:00,
2013-08-31 11:06:00,73.1,70.3,29.96,NNW,339,0.0,2.0,91,0.00,,SKC,0.00,VWS V14.01,2013-08-31 15:06:00,
2013-08-31 11:11:00,73.9,71.4,29.96,NNE,29,0.0,2.0,92,0.00,,SKC,0.00,VWS V14.01,2013-08-31 15:11:00,
2013-08-31 11:16:00,74.9,71.1,29.95,NNW,338,1.0,2.0,88,0.00,,SKC,0.00,VWS V14.01,2013-08-31 15:16:00,
2013-08-31 11:21:00,75.3,71.2,29.95,NE,55,2.0,4.0,87,0.00,,SKC,0.00,VWS V14.01,2013-08-31 15:21:00,
2013-08-31 11:26:00,76.0,71.5,29.95,NE,50,1.0,4.0,86,0.00,,SKC,0.00,VWS V14.01,2013-08-31 15:26:00,
2013-08-31 11:30:00,76.6,72.1,29.95,NE,35,1.0,4.0,86,0.00,,SKC,0.00,VWS V14.01,2013-08-31 15:30:00,
2013-08-31 11:31:00,76.9,72.1,29.95,SSW,201,1.0,2.0,85,0.00,,SKC,0.00,VWS V14.01,2013-08-31 15:31:00,
2013-08-31 11:36:00,77.2,71.6,29.95,NE,44,1.0,3.0,83,0.00,,SKC,0.00,VWS V14.01,2013-08-31 15:36:00,
2013-08-31 11:41:00,77.2,72.0,29.95,NNE,20,2.0,4.0,84,0.00,,SKC,0.00,VWS V14.01,2013-08-31 15:41:00,
2013-08-31 11:46:00,77.1,71.2,29.95,ENE,65,2.0,4.0,82,0.00,,SKC,0.00,VWS V14.01,2013-08-31 15:46:00,
2013-08-31 11:51:00,77.0,71.4,29.95,ENE,70,6.0,6.0,83,0.00,,SKC,0.00,VWS V14.01,2013-08-31 15:51:00,
2013-08-31 11:56:00,76.7,71.2,29.95,NW,319,2.0,6.0,83,0.00,,SKC,0.00,VWS V14.01,2013-08-31 15:56:00,
2013-08-31 12:00:00,77.0,71.4,29.95,NE,39,2.0,6.0,83,0.00,,SKC,0.00,VWS V14.01,2013-08-31 16:00:00,
2013-08-31 12:01:00,77.2,71.6,29.95,ENE,63,3.0,5.0,83,0.00,,SKC,0.00,VWS V14.01,2013-08-31 16:01:00,
2013-08-31 12:06:00,77.5,71.9,29.95,NNW,347,4.0,6.0,83,0.00,,SKC,0.00,VWS V14.01,2013-08-31 16:06:00,
2013-08-31 12:11:00,78.1,71.4,29.95,ENE,60,5.0,6.0,80,0.00,,SKC,0.00,VWS V14.01,2013-08-31 16:11:00,
2013-08-31 12:16:00,78.6,72.3,29.95,NNE,25,3.0,7.0,81,0.00,,SKC,0.00,VWS V14.01,2013-08-31 16:16:00,
2013-08-31 12:21:00,78.7,71.3,29.94,NNW,338,3.0,8.0,78,0.00,,SKC,0.00,VWS V14.01,2013-08-31 16:21:00,
2013-08-31 12:26:00,78.7,72.0,29.94,NE,53,4.0,8.0,80,0.00,,SKC,0.00,VWS V14.01,2013-08-31 16:26:00,
2013-08-31 12:30:00,79.0,71.9,29.94,ENE,63,2.0,8.0,79,0.00,,SKC,0.00,VWS V14.01,2013-08-31 16:30:00,
2013-08-31 12:31:00,79.3,73.0,29.94,ENE,65,2.0,3.0,81,0.00,,SKC,0.00,VWS V14.01,2013-08-31 16:31:00,
2013-08-31 12:36:00,79.8,72.3,29.93,NE,50,3.0,6.0,78,0.00,,SKC,0.00,VWS V14.01,2013-08-31 16:36:00,
2013-08-31 12:41:00,79.7,72.2,29.94,NE,46,4.0,9.0,78,0.00,,SKC,0.00,VWS V14.01,2013-08-31 16:41:00,
2013-08-31 12:46:00,79.2,71.4,29.93,NE,44,0.0,9.0,77,0.00,,SKC,0.00,VWS V14.01,2013-08-31 16:46:00,
2013-08-31 12:51:00,79.4,71.6,29.93,NE,53,3.0,9.0,77,0.00,,SKC,0.00,VWS V14.01,2013-08-31 16:51:00,
2013-08-31 12:56:00,79.3,71.5,29.93,NE,51,3.0,10.0,77,0.00,,SKC,0.00,VWS V14.01,2013-08-31 16:56:00,
2013-08-31 13:00:00,79.6,72.5,29.93,North,8,2.0,10.0,79,0.00,,SKC,0.00,VWS V14.01,2013-08-31 17:00:00,
2013-08-31 13:01:00,79.8,72.7,29.92,NNE,27,3.0,3.0,79,0.00,,SKC,0.00,VWS V14.01,2013-08-31 17:01:00,
2013-08-31 13:06:00,79.8,71.9,29.92,NE,46,4.0,11.0,77,0.00,,SKC,0.00,VWS V14.01,2013-08-31 17:06:00,
2013-08-31 13:11:00,79.3,71.5,29.92,NE,56,4.0,11.0,77,0.00,,SKC,0.00,VWS V14.01,2013-08-31 17:11:00,
2013-08-31 13:16:00,79.0,71.9,29.92,ENE,67,2.0,11.0,79,0.00,,SKC,0.00,VWS V14.01,2013-08-31 17:16:00,
2013-08-31 13:21:00,79.3,71.8,29.92,ENE,63,1.0,11.0,78,0.00,,SKC,0.00,VWS V14.01,2013-08-31 17:21:00,
2013-08-31 13:26:00,80.2,73.1,29.92,WNW,286,4.0,11.0,79,0.00,,SKC,0.00,VWS V14.01,2013-08-31 17:26:00,
2013-08-31 13:30:00,80.3,73.2,29.91,WNW,302,3.0,11.0,79,0.00,,SKC,0.00,VWS V14.01,2013-08-31 17:30:00,
2013-08-31 13:31:00,80.4,72.5,29.91,NE,56,7.0,7.0,77,0.00,,SKC,0.00,VWS V14.01,2013-08-31 17:31:00,
2013-08-31 13:36:00,80.2,73.5,29.91,NNE,17,1.0,8.0,80,0.00,,SKC,0.00,VWS V14.01,2013-08-31 17:36:00,
2013-08-31 13:41:00,80.6,72.7,29.91,NE,55,3.0,9.0,77,0.00,,SKC,0.00,VWS V14.01,2013-08-31 17:41:00,
2013-08-31 13:46:00,81.3,73.8,29.91,ENE,57,4.0,9.0,78,0.00,,SKC,0.00,VWS V14.01,2013-08-31 17:46:00,
2013-08-31 13:51:00,81.0,71.9,29.91,NE,38,3.0,10.0,74,0.00,,SKC,0.00,VWS V14.01,2013-08-31 17:51:00,
2013-08-31 13:56:00,81.3,73.4,29.90,NE,45,4.0,10.0,77,0.00,,SKC,0.00,VWS V14.01,2013-08-31 17:56:00,
2013-08-31 14:00:00,81.0,72.3,29.90,NE,53,5.0,10.0,75,0.00,,SKC,0.00,VWS V14.01,2013-08-31 18:00:00,
2013-08-31 14:01:00,80.8,72.9,29.90,NE,50,5.0,5.0,77,0.00,,SKC,0.00,VWS V14.01,2013-08-31 18:01:00,
2013-08-31 14:06:00,80.8,72.9,29.90,WNW,288,1.0,8.0,77,0.00,,SKC,0.00,VWS V14.01,2013-08-31 18:06:00,
2013-08-31 14:11:00,80.9,72.6,29.89,NW,318,1.0,8.0,76,0.00,,SKC,0.00,VWS V14.01,2013-08-31 18:11:00,
2013-08-31 14:16:00,80.8,72.1,29.90,SW,226,1.0,8.0,75,0.00,,SKC,0.00,VWS V14.01,2013-08-31 18:16:00,
2013-08-31 14:21:00,80.9,73.4,29.90,East,81,5.0,8.0,78,0.00,,SKC,0.00,VWS V14.01,2013-08-31 18:21:00,
2013-08-31 14:26:00,80.5,72.2,29.90,East,98,5.0,9.0,76,0.00,,SKC,0.00,VWS V14.01,2013-08-31 18:26:00,
2013-08-31 14:30:00,80.1,72.6,29.90,NNW,343,1.0,9.0,78,0.00,,SKC,0.00,VWS V14.01,2013-08-31 18:30:00,
2013-08-31 14:31:00,80.1,72.6,29.90,North,1,1.0,2.0,78,0.00,,SKC,0.00,VWS V14.01,2013-08-31 18:31:00,
2013-08-31 14:36:00,80.2,72.7,29.90,ENE,68,3.0,6.0,78,0.00,,SKC,0.00,VWS V14.01,2013-08-31 18:36:00,
2013-08-31 14:41:00,80.3,73.6,29.90,SSE,149,1.0,6.0,80,0.00,,SKC,0.00,VWS V14.01,2013-08-31 18:41:00,
2013-08-31 14:46:00,80.3,72.1,29.89,NE,41,3.0,6.0,76,0.00,,SKC,0.00,VWS V14.01,2013-08-31 18:46:00,
2013-08-31 14:51:00,79.7,71.1,29.90,NNE,31,4.0,12.0,75,0.00,,SKC,0.00,VWS V14.01,2013-08-31 18:51:00,
2013-08-31 14:56:00,78.8,70.6,29.89,NE,46,2.0,12.0,76,0.00,,SKC,0.00,VWS V14.01,2013-08-31 18:56:00,
2013-08-31 15:00:00,78.7,70.5,29.89,North,352,1.0,12.0,76,0.00,,SKC,0.00,VWS V14.01,2013-08-31 19:00:00,
2013-08-31 15:01:00,78.6,70.4,29.89,ENE,72,2.0,4.0,76,0.00,,SKC,0.00,VWS V14.01,2013-08-31 19:01:00,
2013-08-31 15:06:00,77.9,70.1,29.88,NE,47,1.0,4.0,77,0.00,,SKC,0.00,VWS V14.01,2013-08-31 19:06:00,
2013-08-31 15:11:00,77.6,69.8,29.88,SSE,165,0.0,4.0,77,0.00,,SKC,0.00,VWS V14.01,2013-08-31 19:11:00,
2013-08-31 15:16:00,77.5,69.7,29.88,SSE,166,1.0,4.0,77,0.00,,SKC,0.00,VWS V14.01,2013-08-31 19:16:00,
2013-08-31 15:21:00,77.4,70.8,29.88,SSE,166,0.0,4.0,80,0.00,,SKC,0.00,VWS V14.01,2013-08-31 19:21:00,
2013-08-31 15:26:00,77.6,71.7,29.88,SSE,166,0.0,4.0,82,0.00,,SKC,0.00,VWS V14.01,2013-08-31 19:26:00,
2013-08-31 15:30:00,77.8,72.6,29.88,SSE,166,0.0,4.0,84,0.00,,SKC,0.00,VWS V14.01,2013-08-31 19:30:00,
2013-08-31 15:31:00,77.9,73.0,29.88,SSE,166,0.0,0.0,85,0.01,,SKC,0.01,VWS V14.01,2013-08-31 19:31:00,
2013-08-31 15:36:00,78.4,74.6,29.87,WSW,246,0.0,1.0,88,0.01,,SKC,0.01,VWS V14.01,2013-08-31 19:36:00,
2013-08-31 15:41:00,79.0,73.8,29.88,SW,233,0.0,1.0,84,0.01,,SKC,0.01,VWS V14.01,2013-08-31 19:41:00,
2013-08-31 15:46:00,79.3,72.6,29.88,SW,233,0.0,1.0,80,0.01,,SKC,0.01,VWS V14.01,2013-08-31 19:46:00,
2013-08-31 15:51:00,79.5,73.5,29.88,SW,233,0.0,1.0,82,0.01,,SKC,0.01,VWS V14.01,2013-08-31 19:51:00,
2013-08-31 15:56:00,79.7,73.7,29.88,SW,233,0.0,1.0,82,0.01,,SKC,0.01,VWS V14.01,2013-08-31 19:56:00,
2013-08-31 16:00:00,80.3,73.9,29.88,SSW,212,0.0,2.0,81,0.01,,SKC,0.01,VWS V14.01,2013-08-31 20:00:00,
2013-08-31 16:01:00,80.4,73.7,29.88,SSE,156,2.0,2.0,80,0.01,,SKC,0.01,VWS V14.01,2013-08-31 20:01:00,
2013-08-31 16:06:00,80.4,73.7,29.88,WSW,239,0.0,2.0,80,0.01,,SKC,0.01,VWS V14.01,2013-08-31 20:06:00,
2013-08-31 16:11:00,79.9,72.4,29.88,South,169,0.0,4.0,78,0.01,,SKC,0.01,VWS V14.01,2013-08-31 20:11:00,
2013-08-31 16:16:00,79.5,71.3,29.88,SW,218,2.0,4.0,76,0.01,,SKC,0.01,VWS V14.01,2013-08-31 20:16:00,
2013-08-31 16:21:00,79.2,72.5,29.88,SW,219,0.0,4.0,80,0.01,,SKC,0.01,VWS V14.01,2013-08-31 20:21:00,
2013-08-31 16:26:00,79.3,72.6,29.88,South,183,0.0,4.0,80,0.01,,SKC,0.01,VWS V14.01,2013-08-31 20:26:00,
2013-08-31 16:30:00,79.4,72.3,29.87,South,187,0.0,4.0,79,0.01,,SKC,0.01,VWS V14.01,2013-08-31 20:30:00,
2013-08-31 16:31:00,79.5,72.8,29.87,South,188,0.0,0.0,80,0.01,,SKC,0.01,VWS V14.01,2013-08-31 20:31:00,
2013-08-31 16:36:00,79.7,73.0,29.88,WSW,253,0.0,2.0,80,0.01,,SKC,0.01,VWS V14.01,2013-08-31 20:36:00,
2013-08-31 16:41:00,80.7,73.2,29.87,SW,228,2.0,3.0,78,0.01,,SKC,0.01,VWS V14.01,2013-08-31 20:41:00,
2013-08-31 16:46:00,81.6,75.2,29.87,SSW,201,2.0,3.0,81,0.01,,SKC,0.01,VWS V14.01,2013-08-31 20:46:00,
2013-08-31 16:51:00,82.6,73.9,29.87,South,191,5.0,6.0,75,0.01,,SKC,0.01,VWS V14.01,2013-08-31 20:51:00,
2013-08-31 16:56:00,82.7,74.8,29.86,ESE,120,1.0,6.0,77,0.01,,SKC,0.01,VWS V14.01,2013-08-31 20:56:00,
2013-08-31 17:00:00,83.3,73.8,29.86,WSW,242,2.0,6.0,73,0.01,,SKC,0.01,VWS V14.01,2013-08-31 21:00:00,
2013-08-31 17:01:00,83.4,74.2,29.86,South,176,0.0,3.0,74,0.00,,SKC,0.01,VWS V14.01,2013-08-31 21:01:00,
2013-08-31 17:06:00,83.7,72.9,29.86,SSE,158,0.0,4.0,70,0.00,,SKC,0.01,VWS V14.01,2013-08-31 21:06:00,
2013-08-31 17:11:00,83.7,72.9,29.85,SW,224,1.0,4.0,70,0.00,,SKC,0.01,VWS V14.01,2013-08-31 21:11:00,
2013-08-31 17:16:00,82.8,72.0,29.85,SSW,198,1.0,4.0,70,0.00,,SKC,0.01,VWS V14.01,2013-08-31 21:16:00,
2013-08-31 17:21:00,82.7,72.3,29.85,SW,226,1.0,4.0,71,0.00,,SKC,0.01,VWS V14.01,2013-08-31 21:21:00,
2013-08-31 17:26:00,82.5,72.6,29.85,SSW,197,1.0,6.0,72,0.00,,SKC,0.01,VWS V14.01,2013-08-31 21:26:00,
2013-08-31 17:30:00,82.7,71.9,29.85,SW,219,3.0,6.0,70,0.00,,SKC,0.01,VWS V14.01,2013-08-31 21:30:00,
2013-08-31 17:31:00,82.6,72.2,29.85,SW,215,3.0,4.0,71,0.00,,SKC,0.01,VWS V14.01,2013-08-31 21:31:00,
2013-08-31 17:36:00,82.4,72.1,29.85,WNW,283,1.0,4.0,71,0.00,,SKC,0.01,VWS V14.01,2013-08-31 21:36:00,
2013-08-31 17:41:00,82.4,72.5,29.85,SW,215,0.0,4.0,72,0.00,,SKC,0.01,VWS V14.01,2013-08-31 21:41:00,
2013-08-31 17:46:00,82.9,73.4,29.85,SSE,160,2.0,4.0,73,0.00,,SKC,0.01,VWS V14.01,2013-08-31 21:46:00,
2013-08-31 17:51:00,83.5,73.1,29.85,South,181,2.0,4.0,71,0.00,,SKC,0.01,VWS V14.01,2013-08-31 21:51:00,
2013-08-31 17:56:00,83.6,72.8,29.86,WSW,246,2.0,5.0,70,0.00,,SKC,0.01,VWS V14.01,2013-08-31 21:56:00,
2013-08-31 18:00:00,83.2,72.4,29.85,WSW,255,2.0,6.0,70,0.00,,SKC,0.01,VWS V14.01,2013-08-31 22:00:00,
2013-08-31 18:01:00,83.0,71.8,29.86,SSW,200,2.0,5.0,69,0.00,,SKC,0.01,VWS V14.01,2013-08-31 22:01:00,
2013-08-31 18:06:00,82.9,72.9,29.86,SSW,203,0.0,5.0,72,0.00,,SKC,0.01,VWS V14.01,2013-08-31 22:06:00,
2013-08-31 18:11:00,83.5,73.5,29.86,SSW,212,0.0,5.0,72,0.00,,SKC,0.01,VWS V14.01,2013-08-31 22:11:00,
2013-08-31 18:16:00,82.9,72.5,29.86,SW,221,0.0,6.0,71,0.00,,SKC,0.01,VWS V14.01,2013-08-31 22:16:00,
2013-08-31 18:21:00,83.2,72.0,29.86,SE,134,0.0,6.0,69,0.00,,SKC,0.01,VWS V14.01,2013-08-31 22:21:00,
2013-08-31 18:26:00,83.3,72.1,29.86,South,174,1.0,6.0,69,0.00,,SKC,0.01,VWS V14.01,2013-08-31 22:26:00,
2013-08-31 18:30:00,83.0,72.2,29.86,South,174,1.0,6.0,70,0.00,,SKC,0.01,VWS V14.01,2013-08-31 22:30:00,
2013-08-31 18:31:00,82.9,72.1,29.86,SSW,194,1.0,3.0,70,0.00,,SKC,0.01,VWS V14.01,2013-08-31 22:31:00,
2013-08-31 18:36:00,82.6,72.2,29.86,SSW,205,0.0,3.0,71,0.00,,SKC,0.01,VWS V14.01,2013-08-31 22:36:00,
2013-08-31 18:41:00,81.9,72.0,29.86,SSW,194,1.0,3.0,72,0.00,,SKC,0.01,VWS V14.01,2013-08-31 22:41:00,
2013-08-31 18:46:00,81.6,71.7,29.86,SSW,197,0.0,3.0,72,0.00,,SKC,0.01,VWS V14.01,2013-08-31 22:46:00,
2013-08-31 18:51:00,81.3,71.4,29.86,SSW,211,1.0,3.0,72,0.00,,SKC,0.01,VWS V14.01,2013-08-31 22:51:00,
2013-08-31 18:56:00,80.4,71.0,29.86,South,172,0.0,3.0,73,0.00,,SKC,0.01,VWS V14.01,2013-08-31 22:56:00,
2013-08-31 19:00:00,80.0,71.0,29.86,South,172,0.0,3.0,74,0.00,,SKC,0.01,VWS V14.01,2013-08-31 23:00:00,
2013-08-31 19:01:00,79.8,71.2,29.86,South,172,0.0,1.0,75,0.00,,SKC,0.01,VWS V14.01,2013-08-31 23:01:00,
2013-08-31 19:06:00,79.1,70.9,29.86,South,172,1.0,1.0,76,0.00,,SKC,0.01,VWS V14.01,2013-08-31 23:06:00,
2013-08-31 19:11:00,78.8,71.0,29.87,SW,221,1.0,3.0,77,0.00,,SKC,0.01,VWS V14.01,2013-08-31 23:11:00,
2013-08-31 19:16:00,78.8,71.4,29.87,SW,225,0.0,3.0,78,0.00,,SKC,0.01,VWS V14.01,2013-08-31 23:16:00,
2013-08-31 19:21:00,78.9,71.1,29.86,SSW,201,0.0,3.0,77,0.00,,SKC,0.01,VWS V14.01,2013-08-31 23:21:00,
2013-08-31 19:26:00,78.9,71.1,29.87,SSW,201,0.0,3.0,77,0.00,,SKC,0.01,VWS V14.01,2013-08-31 23:26:00,
2013-08-31 19:30:00,78.9,71.1,29.87,SSW,198,0.0,3.0,77,0.00,,SKC,0.01,VWS V14.01,2013-08-31 23:30:00,
2013-08-31 19:31:00,78.8,70.6,29.87,SSE,151,1.0,2.0,76,0.00,,SKC,0.01,VWS V14.01,2013-08-31 23:31:00,
2013-08-31 19:36:00,78.4,70.6,29.87,SSW,198,0.0,2.0,77,0.00,,SKC,0.01,VWS V14.01,2013-08-31 23:36:00,
2013-08-31 19:41:00,77.7,70.3,29.87,West,266,0.0,2.0,78,0.00,,SKC,0.01,VWS V14.01,2013-08-31 23:41:00,
2013-08-31 19:46:00,76.8,69.8,29.87,West,266,0.0,2.0,79,0.00,,SKC,0.01,VWS V14.01,2013-08-31 23:46:00,
2013-08-31 19:51:00,76.2,69.6,29.87,WSW,250,0.0,2.0,80,0.00,,SKC,0.01,VWS V14.01,2013-08-31 23:51:00,
2013-08-31 19:56:00,75.8,69.6,29.87,WSW,240,0.0,3.0,81,0.00,,SKC,0.01,VWS V14.01,2013-08-31 23:56:00,
2013-08-31 20:00:00,75.5,69.6,29.88,WSW,240,0.0,3.0,82,0.00,,SKC,0.01,VWS V14.01,2013-09-01 00:00:00,
2013-08-31 20:01:00,75.4,69.5,29.88,WSW,242,1.0,1.0,82,0.00,,SKC,0.01,VWS V14.01,2013-09-01 00:01:00,
2013-08-31 20:06:00,74.9,69.0,29.88,WSW,242,0.0,1.0,82,0.00,,SKC,0.01,VWS V14.01,2013-09-01 00:06:00,
2013-08-31 20:11:00,74.5,68.7,29.89,WSW,242,0.0,1.0,82,0.00,,SKC,0.01,VWS V14.01,2013-09-01 00:11:00,
2013-08-31 20:16:00,74.2,68.7,29.89,WSW,241,0.0,1.0,83,0.00,,SKC,0.01,VWS V14.01,2013-09-01 00:16:00,
2013-08-31 20:21:00,73.9,68.8,29.90,WSW,242,0.0,1.0,84,0.00,,SKC,0.01,VWS V14.01,2013-09-01 00:21:00,
2013-08-31 20:26:00,73.5,68.7,29.89,SW,235,0.0,1.0,85,0.00,,SKC,0.01,VWS V14.01,2013-09-01 00:26:00,
2013-08-31 20:30:00,73.3,68.5,29.89,SE,134,0.0,2.0,85,0.00,,SKC,0.01,VWS V14.01,2013-09-01 00:30:00,
2013-08-31 20:31:00,73.2,68.4,29.89,East,83,1.0,2.0,85,0.00,,SKC,0.01,VWS V14.01,2013-09-01 00:31:00,
2013-08-31 20:36:00,73.1,68.3,29.90,SSW,211,0.0,2.0,85,0.00,,SKC,0.01,VWS V14.01,2013-09-01 00:36:00,
2013-08-31 20:41:00,73.0,68.6,29.90,SSW,211,0.0,2.0,86,0.00,,SKC,0.01,VWS V14.01,2013-09-01 00:41:00,
2013-08-31 20:46:00,72.7,68.3,29.89,SSW,211,0.0,2.0,86,0.00,,SKC,0.01,VWS V14.01,2013-09-01 00:46:00,
2013-08-31 20:51:00,72.5,68.1,29.90,SSW,211,0.0,2.0,86,0.00,,SKC,0.01,VWS V14.01,2013-09-01 00:51:00,
2013-08-31 20:56:00,72.3,68.2,29.90,SSW,211,0.0,2.0,87,0.00,,SKC,0.01,VWS V14.01,2013-09-01 00:56:00,
2013-08-31 21:00:00,72.2,68.4,29.90,SSW,211,0.0,2.0,88,0.00,,SKC,0.01,VWS V14.01,2013-09-01 01:00:00,
2013-08-31 21:01:00,72.1,68.3,29.90,SSW,211,0.0,0.0,88,0.00,,SKC,0.01,VWS V14.01,2013-09-01 01:01:00,
2013-08-31 21:06:00,71.9,68.2,29.91,SSW,211,0.0,0.0,88,0.00,,SKC,0.01,VWS V14.01,2013-09-01 01:06:00,
2013-08-31 21:11:00,71.5,68.1,29.90,SSW,211,0.0,0.0,89,0.00,,SKC,0.01,VWS V14.01,2013-09-01 01:11:00,
2013-08-31 21:16:00,71.2,68.1,29.90,SSW,211,0.0,0.0,90,0.00,,SKC,0.01,VWS V14.01,2013-09-01 01:16:00,
2013-08-31 21:21:00,71.0,68.2,29.90,SSW,211,0.0,1.0,91,0.00,,SKC,0.01,VWS V14.01,2013-09-01 01:21:00,
2013-08-31 21:26:00,70.8,68.1,29.90,South,183,0.0,1.0,91,0.00,,SKC,0.01,VWS V14.01,2013-09-01 01:26:00,
2013-08-31 21:30:00,70.7,68.3,29.90,South,183,0.0,1.0,92,0.00,,SKC,0.01,VWS V14.01,2013-09-01 01:30:00,
2013-08-31 21:31:00,70.6,68.2,29.90,South,184,0.0,0.0,92,0.00,,SKC,0.01,VWS V14.01,2013-09-01 01:31:00,
2013-08-31 21:35:00,70.5,68.4,29.91,South,183,0.0,0.0,93,0.00,,SKC,0.01,VWS V14.01,2013-09-01 01:35:00,
2013-08-31 21:40:00,70.4,68.3,29.90,South,183,0.0,0.0,93,0.00,,SKC,0.01,VWS V14.01,2013-09-01 01:40:00,
2013-08-31 21:45:00,70.2,68.1,29.90,South,183,0.0,0.0,93,0.00,,SKC,0.01,VWS V14.01,2013-09-01 01:45:00,
2013-08-31 21:50:00,70.0,67.9,29.91,South,183,0.0,0.0,93,0.00,,SKC,0.01,VWS V14.01,2013-09-01 01:50:00,
2013-08-31 21:55:00,70.0,68.2,29.91,East,96,1.0,2.0,94,0.00,,SKC,0.01,VWS V14.01,2013-09-01 01:55:00,
2013-08-31 22:00:00,69.9,68.1,29.91,East,96,0.0,0.0,94,0.00,,SKC,0.01,VWS V14.01,2013-09-01 02:00:00,
2013-08-31 22:05:00,69.9,68.4,29.91,East,98,1.0,2.0,95,0.00,,SKC,0.01,VWS V14.01,2013-09-01 02:05:00,
2013-08-31 22:10:00,69.7,68.2,29.91,South,170,1.0,2.0,95,0.00,,SKC,0.01,VWS V14.01,2013-09-01 02:10:00,
2013-08-31 22:15:00,69.6,68.1,29.90,South,170,0.0,2.0,95,0.00,,SKC,0.01,VWS V14.01,2013-09-01 02:15:00,
2013-08-31 22:20:00,69.6,68.1,29.90,South,170,0.0,2.0,95,0.00,,SKC,0.01,VWS V14.01,2013-09-01 02:20:00,
2013-08-31 22:25:00,69.5,68.0,29.90,South,170,0.0,2.0,95,0.00,,SKC,0.01,VWS V14.01,2013-09-01 02:25:00,
2013-08-31 22:30:00,69.2,67.7,29.90,South,170,0.0,0.0,95,0.00,,SKC,0.01,VWS V14.01,2013-09-01 02:30:00,
2013-08-31 22:35:00,69.1,67.9,29.90,South,170,0.0,0.0,96,0.00,,SKC,0.01,VWS V14.01,2013-09-01 02:35:00,
2013-08-31 22:40:00,69.1,67.9,29.90,South,170,0.0,0.0,96,0.00,,SKC,0.01,VWS V14.01,2013-09-01 02:40:00,
2013-08-31 22:45:00,69.0,67.8,29.91,South,170,0.0,0.0,96,0.00,,SKC,0.01,VWS V14.01,2013-09-01 02:45:00,
2013-08-31 22:50:00,69.0,67.8,29.90,South,170,0.0,0.0,96,0.00,,SKC,0.01,VWS V14.01,2013-09-01 02:50:00,
2013-08-31 22:55:00,68.9,67.7,29.90,South,170,0.0,0.0,96,0.00,,SKC,0.01,VWS V14.01,2013-09-01 02:55:00,
2013-08-31 23:00:00,68.9,68.0,29.90,South,170,1.0,1.0,97,0.00,,SKC,0.01,VWS V14.01,2013-09-01 03:00:00,
2013-08-31 23:05:00,68.8,67.9,29.90,South,170,0.0,1.0,97,0.00,,SKC,0.01,VWS V14.01,2013-09-01 03:05:00,
2013-08-31 23:10:00,68.8,67.6,29.90,South,170,0.0,1.0,96,0.00,,SKC,0.01,VWS V14.01,2013-09-01 03:10:00,
2013-08-31 23:15:00,68.7,67.8,29.91,South,170,0.0,1.0,97,0.00,,SKC,0.01,VWS V14.01,2013-09-01 03:15:00,
2013-08-31 23:20:00,68.7,67.8,29.90,South,170,0.0,1.0,97,0.00,,SKC,0.01,VWS V14.01,2013-09-01 03:20:00,
2013-08-31 23:25:00,68.6,67.7,29.91,South,170,0.0,1.0,97,0.00,,SKC,0.01,VWS V14.01,2013-09-01 03:25:00,
2013-08-31 23:30:00,68.6,67.7,29.91,South,170,0.0,0.0,97,0.00,,SKC,0.01,VWS V14.01,2013-09-01 03:30:00,
2013-08-31 23:35:00,68.6,67.7,29.91,South,170,0.0,1.0,97,0.00,,SKC,0.01,VWS V14.01,2013-09-01 03:35:00,
2013-08-31 23:40:00,68.6,67.7,29.91,South,170,0.0,1.0,97,0.00,,SKC,0.01,VWS V14.01,2013-09-01 03:40:00,
2013-08-31 23:45:00,68.5,67.6,29.91,South,170,0.0,1.0,97,0.00,,SKC,0.01,VWS V14.01,2013-09-01 03:45:00,
2013-08-31 23:50:00,68.5,67.6,29.91,South,170,0.0,1.0,97,0.00,,SKC,0.01,VWS V14.01,2013-09-01 03:50:00,
2013-08-31 23:55:00,68.6,68.0,29.91,South,170,0.0,1.0,98,0.00,,SKC,0.01,VWS V14.01,2013-09-01 03:55:00,